Time;durP1;ratioP1;P1;durP2;ratioP2;P2;SDS_P1;SDS_P2;PMS_P1;PMS_P2;Temp;Humidity;BMP_temperature;BMP_pressure;BME280_temperature;BME280_humidity;BME280_pressure;Samples;Min_cycle;Max_cycle;Signal;HPM_P1;HPM_P2
2022/09/21 00:01:27;;;;;;;6.37;3.75;;;;;;;9.57;87.10;100250.47;4492387;31;34681;-76
2022/09/21 00:04:01;;;;;;;8.30;4.70;;;;;;;9.50;88.03;100254.41;4489874;31;33259;-76
2022/09/21 00:06:31;;;;;;;8.00;3.83;;;;;;;9.94;86.64;100250.78;4487905;31;33158;-76
2022/09/21 00:08:59;;;;;;;12.95;4.55;;;;;;;9.79;86.01;100258.63;4489604;31;33114;-76
2022/09/21 00:11:28;;;;;;;8.77;4.50;;;;;;;9.53;87.46;100257.16;4477535;31;32487;-76
2022/09/21 00:13:59;;;;;;;8.68;4.45;;;;;;;9.15;89.51;100263.63;4486361;31;33322;-76
2022/09/21 00:16:27;;;;;;;7.15;4.12;;;;;;;9.24;89.17;100261.56;4484938;31;33196;-76
2022/09/21 00:18:55;;;;;;;7.70;4.10;;;;;;;9.09;90.06;100259.81;4484592;31;34643;-75
2022/09/21 00:21:24;;;;;;;7.07;4.30;;;;;;;9.09;90.42;100258.09;4492279;31;34021;-76
2022/09/21 00:23:53;;;;;;;8.10;4.90;;;;;;;9.07;90.82;100259.72;4475089;31;33241;-76
2022/09/21 00:26:22;;;;;;;7.05;3.97;;;;;;;8.95;91.67;100256.44;4489555;31;35187;-76
2022/09/21 00:28:58;;;;;;;9.23;4.43;;;;;;;8.81;92.43;100251.34;4485915;31;34305;-76
2022/09/21 00:31:27;;;;;;;8.77;4.70;;;;;;;8.70;93.38;100252.41;4476667;31;33512;-76
2022/09/21 00:33:57;;;;;;;7.47;4.32;;;;;;;8.95;92.99;100256.44;4491572;31;33383;-76
2022/09/21 00:36:25;;;;;;;7.40;4.47;;;;;;;8.94;92.77;100257.22;4490495;31;33371;-76
2022/09/21 00:38:55;;;;;;;7.90;4.10;;;;;;;8.92;92.01;100267.47;4494151;31;33864;-76
2022/09/21 00:41:24;;;;;;;7.20;4.53;;;;;;;9.18;91.25;100266.41;4491758;31;32753;-76
2022/09/21 00:44:23;;;;;;;8.02;4.93;;;;;;;9.09;90.88;100258.09;4487682;31;33893;-76
2022/09/21 00:46:53;;;;;;;7.75;4.22;;;;;;;9.16;89.46;100265.44;4472973;31;34095;-76
2022/09/21 00:49:20;;;;;;;6.80;3.80;;;;;;;9.28;88.34;100261.78;4473860;31;34008;-76
2022/09/21 00:51:48;;;;;;;8.30;4.35;;;;;;;9.46;88.12;100265.38;4460573;31;34131;-76
2022/09/21 00:54:21;;;;;;;8.20;4.62;;;;;;;9.79;85.95;100265.47;4495349;31;34595;-76
2022/09/21 00:56:49;;;;;;;7.53;4.50;;;;;;;9.69;85.82;100268.38;4478120;31;33830;-76
2022/09/21 00:59:17;;;;;;;7.30;3.92;;;;;;;9.72;85.88;100268.56;4485205;31;33950;-76
2022/09/21 01:01:48;;;;;;;7.18;4.30;;;;;;;9.58;85.78;100276.44;4473255;31;33838;-76
2022/09/21 01:04:17;;;;;;;7.60;4.07;;;;;;;9.38;87.34;100277.00;4485847;31;34616;-76
2022/09/21 01:06:46;;;;;;;7.50;4.18;;;;;;;9.34;87.33;100275.91;4478208;32;34006;-76
2022/09/21 01:09:16;;;;;;;7.00;4.32;;;;;;;9.30;87.97;100278.25;4487242;31;34721;-76
2022/09/21 01:11:46;;;;;;;9.48;4.82;;;;;;;9.17;89.02;100284.41;4479480;31;34672;-76
2022/09/21 01:14:39;;;;;;;7.55;4.70;;;;;;;8.88;90.23;100282.69;4486506;31;34068;-75
2022/09/21 01:17:25;;;;;;;7.85;4.37;;;;;;;8.66;92.17;100281.44;4488621;31;32989;-76
2022/09/21 01:20:03;;;;;;;10.90;4.60;;;;;;;8.53;91.90;100278.91;4486627;31;33740;-76
2022/09/21 01:22:56;;;;;;;7.55;4.10;;;;;;;8.41;93.41;100282.50;4489325;31;34735;-76
2022/09/21 01:25:40;;;;;;;8.88;5.03;;;;;;;8.39;93.18;100280.63;4485532;32;33945;-76
2022/09/21 01:28:17;;;;;;;8.23;4.72;;;;;;;8.38;94.22;100278.81;4473785;32;34093;-76
2022/09/21 01:30:46;;;;;;;8.00;4.45;;;;;;;8.46;92.83;100283.69;4476463;31;33840;-76
2022/09/21 01:33:28;;;;;;;8.05;4.78;;;;;;;8.64;91.99;100286.50;4488860;31;33502;-76
2022/09/21 01:35:58;;;;;;;8.25;4.68;;;;;;;8.73;90.95;100278.41;4494163;31;34490;-76
2022/09/21 01:38:31;;;;;;;9.63;5.00;;;;;;;8.72;91.25;100286.94;4477995;31;33407;-76
2022/09/21 01:41:01;;;;;;;7.53;4.15;;;;;;;8.60;90.94;100284.53;4474178;32;34928;-76
2022/09/21 01:43:39;;;;;;;7.47;4.45;;;;;;;8.70;90.59;100283.38;4478916;31;33370;-76
2022/09/21 01:46:12;;;;;;;8.48;4.15;;;;;;;9.87;84.13;100279.75;4475756;31;34156;-76
2022/09/21 01:48:43;;;;;;;7.35;4.07;;;;;;;10.52;80.19;100288.44;4480164;32;33532;-76
2022/09/21 01:51:13;;;;;;;8.07;4.05;;;;;;;10.37;80.06;100284.22;4477924;31;34413;-76
2022/09/21 01:53:44;;;;;;;7.37;4.50;;;;;;;10.27;80.61;100286.19;4480981;31;33893;-76
2022/09/21 01:56:21;;;;;;;7.68;4.40;;;;;;;10.19;81.00;100284.06;4479197;31;32617;-76
2022/09/21 01:59:09;;;;;;;7.72;4.18;;;;;;;10.04;81.55;100294.50;4495979;31;33340;-76
2022/09/21 02:01:43;;;;;;;9.30;4.90;;;;;;;10.06;82.06;100288.50;4476598;31;33447;-76
2022/09/21 02:04:12;;;;;;;6.50;3.90;;;;;;;9.96;82.75;100284.53;4479271;31;33883;-76
2022/09/21 02:06:41;;;;;;;7.22;3.80;;;;;;;10.07;81.56;100285.13;4491390;31;33633;-76
2022/09/21 02:09:09;;;;;;;7.60;4.28;;;;;;;9.11;86.42;100284.06;4482567;31;33090;-76
2022/09/21 02:11:41;;;;;;;7.82;4.22;;;;;;;8.84;89.44;100287.66;4489439;31;34771;-76
2022/09/21 02:14:18;;;;;;;8.18;4.50;;;;;;;8.41;92.21;100289.34;4494588;31;33811;-76
2022/09/21 02:17:13;;;;;;;9.10;4.43;;;;;;;9.22;89.67;100288.16;4482779;31;34373;-76
2022/09/21 02:20:16;;;;;;;8.55;4.87;;;;;;;8.96;88.84;100286.62;4488422;31;33410;-76
2022/09/21 02:22:59;;;;;;;7.93;4.43;;;;;;;9.60;87.24;100290.34;4481455;31;33809;-76
2022/09/21 02:25:43;;;;;;;8.13;4.20;;;;;;;9.77;86.02;100292.97;4472184;32;35255;-76
2022/09/21 02:28:39;;;;;;;9.03;4.03;;;;;;;10.31;82.54;100299.41;4476005;31;34545;-76
2022/09/21 02:31:22;;;;;;;6.70;3.85;;;;;;;10.28;82.56;100303.53;4462684;31;31909;-76
2022/09/21 02:34:04;;;;;;;6.68;3.75;;;;;;;9.30;87.72;100304.09;4485965;31;34476;-75
2022/09/21 02:36:42;;;;;;;7.55;4.53;;;;;;;9.80;85.59;100298.31;4475540;31;33516;-76
2022/09/21 02:39:14;;;;;;;8.10;4.62;;;;;;;9.03;89.69;100293.94;4486056;31;33583;-76
2022/09/21 02:41:49;;;;;;;6.75;3.75;;;;;;;9.26;90.13;100297.87;4477250;31;32910;-76
2022/09/21 02:44:27;;;;;;;7.70;4.07;;;;;;;10.13;84.63;100295.81;4491539;31;34327;-76
2022/09/21 02:47:00;;;;;;;6.20;3.20;;;;;;;9.82;84.79;100301.87;4491228;31;33968;-76
2022/09/21 02:49:32;;;;;;;7.72;3.87;;;;;;;9.14;88.41;100302.34;4478982;31;33813;-76
2022/09/21 02:52:05;;;;;;;8.43;4.60;;;;;;;8.63;91.14;100305.37;4478410;31;33260;-78
2022/09/21 02:54:33;;;;;;;8.27;4.93;;;;;;;8.70;91.62;100301.47;4477423;31;34704;-78
2022/09/21 02:57:01;;;;;;;9.90;4.55;;;;;;;9.16;88.45;100293.84;4475138;31;34300;-78
2022/09/21 02:59:31;;;;;;;8.75;4.20;;;;;;;8.85;90.84;100299.81;4470516;31;33408;-76
2022/09/21 03:01:59;;;;;;;8.60;4.60;;;;;;;9.14;89.66;100299.75;4476079;31;33154;-76
2022/09/21 03:04:27;;;;;;;7.93;3.95;;;;;;;9.13;89.79;100295.38;4478517;31;34921;-76
2022/09/21 03:06:55;;;;;;;7.68;4.47;;;;;;;8.93;90.67;100314.87;4491529;31;34875;-76
2022/09/21 03:09:23;;;;;;;7.95;4.00;;;;;;;9.31;89.87;100313.62;4488121;31;32355;-76
2022/09/21 03:11:51;;;;;;;7.55;4.43;;;;;;;9.21;90.23;100314.78;4490294;31;33782;-76
2022/09/21 03:14:18;;;;;;;6.95;3.90;;;;;;;9.59;87.90;100310.94;4496966;31;33513;-76
2022/09/21 03:16:46;;;;;;;7.97;3.85;;;;;;;9.69;85.29;100317.53;4490376;31;34846;-76
2022/09/21 03:19:14;;;;;;;8.13;4.40;;;;;;;10.64;81.00;100325.31;4485051;31;32384;-76
2022/09/21 03:21:41;;;;;;;7.70;4.30;;;;;;;10.71;79.96;100327.44;4486624;31;33669;-76
2022/09/21 03:24:11;;;;;;;7.35;4.43;;;;;;;8.96;89.47;100330.53;4484799;31;33994;-76
2022/09/21 03:26:38;;;;;;;8.32;4.65;;;;;;;9.81;86.37;100326.88;4474434;31;32226;-76
2022/09/21 03:29:07;;;;;;;7.78;4.30;;;;;;;9.89;84.30;100324.72;4489392;31;32452;-76
2022/09/21 03:31:35;;;;;;;7.45;4.12;;;;;;;9.44;87.97;100326.47;4486917;31;34142;-76
2022/09/21 03:34:02;;;;;;;7.97;4.82;;;;;;;8.90;89.70;100335.34;4486972;31;33838;-76
2022/09/21 03:36:30;;;;;;;8.38;4.53;;;;;;;9.09;90.07;100322.72;4487876;31;34130;-76
2022/09/21 03:38:57;;;;;;;10.60;4.85;;;;;;;9.23;88.06;100329.59;4486124;31;34245;-76
2022/09/21 03:41:25;;;;;;;8.10;4.93;;;;;;;8.96;90.12;100322.78;4485898;31;33937;-76
2022/09/21 03:43:52;;;;;;;8.02;4.97;;;;;;;9.07;89.89;100326.91;4486153;31;34205;-76
2022/09/21 03:46:20;;;;;;;7.75;4.53;;;;;;;8.90;90.13;100328.47;4490973;31;34573;-75
2022/09/21 03:48:47;;;;;;;10.18;5.00;;;;;;;8.69;91.33;100333.25;4475713;31;34759;-76
2022/09/21 03:51:14;;;;;;;8.45;4.97;;;;;;;8.63;91.73;100343.22;4489055;31;33194;-76
2022/09/21 03:53:42;;;;;;;8.13;4.82;;;;;;;8.72;90.05;100336.03;4489201;31;34017;-76
2022/09/21 03:56:10;;;;;;;8.25;4.70;;;;;;;8.63;90.93;100343.22;4488044;31;33988;-76
2022/09/21 03:58:37;;;;;;;8.82;5.10;;;;;;;8.90;89.52;100343.09;4472739;31;33350;-76
2022/09/21 04:01:05;;;;;;;10.15;5.05;;;;;;;8.49;90.89;100338.91;4486822;31;33432;-76
2022/09/21 04:03:33;;;;;;;9.55;5.07;;;;;;;8.49;91.09;100344.06;4486889;31;34560;-75
2022/09/21 04:06:00;;;;;;;10.68;5.53;;;;;;;8.37;92.29;100344.16;4486846;31;34049;-76
2022/09/21 04:08:29;;;;;;;9.38;5.32;;;;;;;9.43;87.37;100353.16;4478027;31;34337;-75
2022/09/21 04:10:57;;;;;;;8.52;5.12;;;;;;;8.97;87.99;100351.31;4457029;32;34217;-76
2022/09/21 04:13:24;;;;;;;9.18;5.28;;;;;;;9.09;88.72;100348.56;4483417;31;33645;-76
2022/09/21 04:15:52;;;;;;;9.48;5.30;;;;;;;8.93;87.16;100356.22;4487589;31;33651;-76
2022/09/21 04:18:20;;;;;;;9.43;5.30;;;;;;;9.83;84.34;100345.06;4488395;31;34479;-76
2022/09/21 04:20:47;;;;;;;9.85;6.12;;;;;;;9.20;85.97;100365.59;4487114;31;33204;-76
2022/09/21 04:23:15;;;;;;;10.40;5.43;;;;;;;8.50;90.79;100354.50;4491334;31;34373;-76
2022/09/21 04:25:43;;;;;;;10.02;5.95;;;;;;;9.09;89.00;100356.31;4490788;31;34205;-76
2022/09/21 04:28:11;;;;;;;10.65;5.55;;;;;;;8.55;89.46;100355.66;4480993;31;34455;-76
2022/09/21 04:30:39;;;;;;;12.65;5.70;;;;;;;8.77;90.06;100357.88;4481747;31;33673;-76
2022/09/21 04:33:07;;;;;;;11.80;5.97;;;;;;;9.18;86.68;100356.88;4483769;31;33620;-76
2022/09/21 04:35:34;;;;;;;8.32;5.22;;;;;;;8.65;90.61;100362.25;4488872;31;33754;-76
2022/09/21 04:38:02;;;;;;;8.93;4.78;;;;;;;9.32;86.66;100356.78;4485722;31;33465;-76
2022/09/21 04:40:30;;;;;;;9.60;5.20;;;;;;;9.63;84.17;100360.34;4489364;31;33353;-76
2022/09/21 04:42:57;;;;;;;9.73;5.57;;;;;;;9.78;84.40;100362.91;4488397;31;34448;-76
2022/09/21 04:45:25;;;;;;;8.52;5.00;;;;;;;9.55;84.04;100359.00;4488254;31;34720;-76
2022/09/21 04:47:53;;;;;;;9.50;5.62;;;;;;;8.82;88.38;100373.63;4485115;31;33693;-75
2022/09/21 04:50:21;;;;;;;9.55;5.53;;;;;;;8.70;89.68;100371.19;4488199;31;33142;-76
2022/09/21 04:52:48;;;;;;;9.00;5.30;;;;;;;8.60;91.11;100374.03;4485602;31;34524;-76
2022/09/21 04:55:16;;;;;;;9.85;5.50;;;;;;;9.11;87.62;100380.56;4481442;31;34508;-76
2022/09/21 04:57:44;;;;;;;11.30;6.25;;;;;;;9.67;85.09;100376.03;4487889;31;33760;-76
2022/09/21 05:00:12;;;;;;;10.48;6.05;;;;;;;9.04;87.24;100383.59;4486818;31;33441;-76
2022/09/21 05:02:39;;;;;;;10.68;5.85;;;;;;;8.96;88.49;100385.72;4468370;31;33320;-76
2022/09/21 05:05:07;;;;;;;9.93;5.97;;;;;;;8.82;89.17;100384.84;4474391;31;33489;-76
2022/09/21 05:07:34;;;;;;;12.43;6.15;;;;;;;8.68;90.79;100385.72;4492861;31;33612;-77
2022/09/21 05:10:02;;;;;;;11.55;6.47;;;;;;;8.57;91.20;100379.00;4485231;31;34241;-79
2022/09/21 05:12:34;;;;;;;10.25;6.37;;;;;;;8.99;89.94;100379.84;4492685;31;33688;-79
2022/09/21 05:15:09;;;;;;;12.27;6.62;;;;;;;9.06;88.78;100387.16;4486353;31;33548;-77
2022/09/21 05:17:37;;;;;;;10.27;6.18;;;;;;;9.38;87.78;100390.75;4471035;31;33320;-78
2022/09/21 05:20:04;;;;;;;12.13;6.87;;;;;;;9.62;86.22;100386.13;4480771;31;32771;-77
2022/09/21 05:22:32;;;;;;;13.27;6.78;;;;;;;9.03;89.68;100392.13;4488636;31;33945;-77
2022/09/21 05:25:00;;;;;;;10.27;6.72;;;;;;;9.94;85.84;100381.91;4487273;31;33878;-80
2022/09/21 05:27:27;;;;;;;10.80;6.43;;;;;;;9.63;87.07;100383.63;4485189;31;33500;-79
2022/09/21 05:29:55;;;;;;;11.82;6.50;;;;;;;9.62;85.96;100392.19;4488446;31;33546;-76
2022/09/21 05:32:55;;;;;;;12.05;6.78;;;;;;;8.76;91.28;100396.53;4487809;31;33861;-78
2022/09/21 05:35:37;;;;;;;13.82;7.50;;;;;;;9.22;88.97;100395.03;4479229;31;34392;-77
2022/09/21 05:38:17;;;;;;;11.25;7.15;;;;;;;8.94;90.69;100396.75;4471456;31;33933;-77
2022/09/21 05:40:49;;;;;;;13.77;7.37;;;;;;;9.64;87.35;100393.16;4484608;31;35253;-77
2022/09/21 05:43:16;;;;;;;12.25;7.50;;;;;;;9.07;90.16;100390.63;4474141;32;33682;-76
2022/09/21 05:46:20;;;;;;;14.68;7.57;;;;;;;9.17;88.69;100395.53;4488563;31;33805;-77
2022/09/21 05:48:56;;;;;;;12.48;7.05;;;;;;;9.17;90.38;100396.44;4463370;32;33813;-77
2022/09/21 05:51:50;;;;;;;11.48;8.10;;;;;;;9.14;90.15;100391.09;4471814;31;34213;-77
2022/09/21 05:54:28;;;;;;;13.32;7.65;;;;;;;9.62;86.11;100397.38;4483540;31;33586;-77
2022/09/21 05:57:28;;;;;;;12.45;7.18;;;;;;;9.99;84.80;100389.13;4468829;32;34379;-77
2022/09/21 06:00:08;;;;;;;12.95;8.55;;;;;;;10.25;83.79;100402.63;4467521;32;34363;-76
2022/09/21 06:02:44;;;;;;;13.88;7.68;;;;;;;8.89;90.23;100396.47;4467506;31;32817;-77
2022/09/21 06:05:13;;;;;;;12.18;7.37;;;;;;;9.28;88.59;100401.38;4475683;32;33583;-78
2022/09/21 06:07:41;;;;;;;13.43;7.35;;;;;;;10.30;83.95;100401.22;4489463;31;33944;-77
2022/09/21 06:10:10;;;;;;;13.40;7.47;;;;;;;9.75;87.13;100411.00;4488071;31;34345;-77
2022/09/21 06:12:38;;;;;;;11.98;7.65;;;;;;;9.60;87.52;100405.81;4481102;32;33332;-77
2022/09/21 06:15:07;;;;;;;13.02;7.90;;;;;;;9.89;85.54;100407.53;4485960;32;33431;-77
2022/09/21 06:17:35;;;;;;;12.98;7.18;;;;;;;9.12;89.07;100408.19;4474171;32;34824;-77
2022/09/21 06:20:05;;;;;;;12.55;8.02;;;;;;;10.21;84.59;100408.44;4498968;31;34035;-77
2022/09/21 06:22:33;;;;;;;11.75;6.53;;;;;;;9.99;83.74;100409.81;4486245;31;33192;-77
2022/09/21 06:25:00;;;;;;;13.02;8.07;;;;;;;10.31;83.47;100409.87;4492298;31;34380;-77
2022/09/21 06:27:28;;;;;;;12.70;8.02;;;;;;;9.16;88.30;100410.16;4490429;31;33687;-77
2022/09/21 06:29:56;;;;;;;13.27;7.87;;;;;;;9.80;86.56;100412.16;4485833;32;34562;-77
2022/09/21 06:32:23;;;;;;;13.30;7.30;;;;;;;9.67;86.73;100410.56;4494264;31;33277;-77
2022/09/21 06:34:51;;;;;;;9.68;6.53;;;;;;;9.58;88.04;100420.34;4493899;31;33772;-76
2022/09/21 06:37:18;;;;;;;14.80;7.50;;;;;;;9.52;88.96;100414.84;4491108;31;33669;-77
2022/09/21 06:39:46;;;;;;;12.13;7.25;;;;;;;9.87;86.72;100424.66;4497359;31;34717;-77
2022/09/21 06:42:13;;;;;;;11.32;7.53;;;;;;;9.70;87.06;100425.38;4485586;31;33106;-77
2022/09/21 06:44:41;;;;;;;11.63;6.68;;;;;;;9.71;87.05;100419.38;4495534;31;33983;-77
2022/09/21 06:47:08;;;;;;;10.20;6.35;;;;;;;10.24;85.25;100421.56;4496626;31;33676;-77
2022/09/21 06:49:36;;;;;;;11.88;7.07;;;;;;;10.79;81.40;100423.72;4496380;31;33655;-77
2022/09/21 06:52:08;;;;;;;12.18;7.37;;;;;;;9.81;86.32;100426.87;4485888;31;33105;-77
2022/09/21 06:54:37;;;;;;;13.20;8.63;;;;;;;10.13;85.90;100435.59;4473136;32;33951;-77
2022/09/21 06:57:05;;;;;;;11.30;7.15;;;;;;;9.67;87.88;100427.78;4485653;32;34058;-77
2022/09/21 06:59:32;;;;;;;12.02;7.50;;;;;;;10.80;83.53;100428.13;4488195;31;33566;-77
2022/09/21 07:02:00;;;;;;;12.23;7.03;;;;;;;10.59;84.96;100435.59;4485357;32;33545;-77
2022/09/21 07:04:28;;;;;;;12.18;8.15;;;;;;;10.73;83.36;100439.81;4494227;31;33821;-77
2022/09/21 07:06:56;;;;;;;11.77;7.40;;;;;;;10.33;83.59;100439.34;4488556;31;34443;-77
2022/09/21 07:09:24;;;;;;;13.75;7.87;;;;;;;10.23;85.58;100438.78;4490656;31;34240;-77
2022/09/21 07:12:12;;;;;;;11.15;7.05;;;;;;;10.43;84.60;100445.12;4498348;31;32179;-79
2022/09/21 07:14:40;;;;;;;12.25;6.82;;;;;;;10.26;84.33;100440.66;4482209;31;33859;-79
2022/09/21 07:17:07;;;;;;;12.45;7.65;;;;;;;11.21;82.46;100451.03;4495437;31;33716;-79
2022/09/21 07:19:35;;;;;;;14.60;6.97;;;;;;;10.77;83.37;100446.06;4484986;31;34137;-79
2022/09/21 07:22:03;;;;;;;10.10;6.37;;;;;;;11.57;80.37;100440.78;4487663;31;33373;-79
2022/09/21 07:24:30;;;;;;;9.45;6.28;;;;;;;11.33;80.38;100439.53;4483805;31;33875;-80
2022/09/21 07:26:58;;;;;;;9.65;6.60;;;;;;;11.25;81.07;100443.44;4482174;31;33813;-78
2022/09/21 07:29:26;;;;;;;9.20;5.93;;;;;;;11.47;79.06;100437.63;4489060;31;33317;-79
2022/09/21 07:31:53;;;;;;;11.07;5.75;;;;;;;11.11;80.77;100443.59;4488506;31;33457;-80
2022/09/21 07:34:21;;;;;;;9.70;5.45;;;;;;;11.66;79.99;100448.13;4488543;31;34739;-78
2022/09/21 07:36:49;;;;;;;9.05;5.22;;;;;;;11.85;78.43;100439.56;4493200;31;33787;-78
2022/09/21 07:39:16;;;;;;;8.95;5.37;;;;;;;11.37;79.76;100447.53;4474343;31;33258;-79
2022/09/21 07:41:44;;;;;;;9.85;6.15;;;;;;;11.69;78.77;100450.00;4487592;31;33288;-77
2022/09/21 07:44:12;;;;;;;9.75;5.72;;;;;;;11.34;78.89;100446.50;4492654;31;33782;-76
2022/09/21 07:46:39;;;;;;;11.35;5.80;;;;;;;11.27;79.75;100454.78;4491183;31;33504;-76
2022/09/21 07:49:14;;;;;;;8.43;5.85;;;;;;;11.56;79.46;100456.28;4484198;31;34564;-74
2022/09/21 07:51:42;;;;;;;9.27;6.03;;;;;;;11.68;77.74;100458.59;4483501;31;33271;-76
2022/09/21 07:54:10;;;;;;;9.48;6.07;;;;;;;11.25;79.25;100457.28;4487427;31;34421;-76
2022/09/21 07:56:38;;;;;;;8.93;6.43;;;;;;;11.91;77.47;100452.88;4496994;31;34817;-76
2022/09/21 07:59:06;;;;;;;9.18;5.35;;;;;;;11.57;78.98;100451.16;4491051;31;34424;-78
2022/09/21 08:01:38;;;;;;;9.73;5.45;;;;;;;12.03;76.66;100446.53;4476425;31;33037;-76
2022/09/21 08:04:08;;;;;;;9.00;5.53;;;;;;;12.26;74.87;100435.53;4489251;31;33658;-76
2022/09/21 08:06:38;;;;;;;9.80;5.28;;;;;;;11.96;76.89;100441.03;4490614;31;34451;-76
2022/09/21 08:09:07;;;;;;;9.02;5.50;;;;;;;12.22;76.25;100446.59;4462973;32;34999;-76
2022/09/21 08:11:36;;;;;;;7.30;4.95;;;;;;;12.22;75.36;100444.00;4492200;31;33349;-75
2022/09/21 08:14:03;;;;;;;8.25;5.43;;;;;;;12.58;73.73;100449.19;4489748;31;33678;-76
2022/09/21 08:16:32;;;;;;;9.05;5.80;;;;;;;12.68;75.04;100454.00;4476011;31;34496;-76
2022/09/21 08:19:01;;;;;;;7.68;5.05;;;;;;;12.83;74.17;100455.53;4476066;31;33636;-76
2022/09/21 08:21:29;;;;;;;7.40;4.85;;;;;;;13.83;70.46;100446.91;4488982;31;33437;-78
2022/09/21 08:23:57;;;;;;;7.60;5.10;;;;;;;13.12;70.99;100449.94;4484457;31;33536;-79
2022/09/21 08:26:25;;;;;;;8.77;4.97;;;;;;;13.23;69.58;100447.81;4485280;31;33710;-78
2022/09/21 08:28:55;;;;;;;6.72;4.45;;;;;;;14.27;69.04;100448.75;4466359;31;33075;-77
2022/09/21 08:31:23;;;;;;;6.57;3.70;;;;;;;13.53;69.41;100447.41;4493439;31;33888;-79
2022/09/21 08:33:51;;;;;;;6.00;4.10;;;;;;;14.95;64.49;100443.59;4489282;31;34851;-77
2022/09/21 08:36:19;;;;;;;7.70;4.37;;;;;;;14.20;66.82;100433.72;4473096;31;33556;-78
2022/09/21 08:38:47;;;;;;;8.40;4.50;;;;;;;13.92;67.23;100436.87;4488340;31;34471;-76
2022/09/21 08:41:42;;;;;;;7.43;4.10;;;;;;;13.70;68.91;100450.75;4493016;31;33500;-76
2022/09/21 08:44:17;;;;;;;6.47;4.25;;;;;;;13.29;70.77;100447.19;4476940;31;33324;-78
2022/09/21 08:46:57;;;;;;;5.95;3.85;;;;;;;12.81;72.19;100441.56;4475304;32;33784;-76
2022/09/21 08:49:26;;;;;;;5.93;4.05;;;;;;;13.45;70.84;100444.47;4478381;31;34687;-76
2022/09/21 08:51:58;;;;;;;6.78;3.75;;;;;;;14.20;68.40;100444.13;4479014;31;33290;-76
2022/09/21 08:54:38;;;;;;;7.95;3.60;;;;;;;13.99;67.44;100445.88;4491123;31;34603;-76
2022/09/21 08:57:11;;;;;;;6.57;3.75;;;;;;;14.22;69.10;100439.00;4470435;32;34290;-76
2022/09/21 08:59:43;;;;;;;5.90;3.40;;;;;;;14.92;65.17;100448.69;4476826;32;33585;-77
2022/09/21 09:02:30;;;;;;;6.10;3.08;;;;;;;14.91;65.44;100452.09;4473534;31;33091;-77
2022/09/21 09:05:21;;;;;;;5.78;3.30;;;;;;;14.93;63.69;100460.87;4488403;31;34034;-79
2022/09/21 09:08:11;;;;;;;5.43;3.10;;;;;;;15.41;63.98;100446.97;4472374;31;33865;-79
2022/09/21 09:11:29;;;;;;;6.30;3.60;;;;;;;15.43;63.74;100461.88;4490940;31;33731;-77
2022/09/21 09:14:18;;;;;;;6.80;3.40;;;;;;;15.59;63.09;100459.78;4463786;31;33073;-77
2022/09/21 09:16:55;;;;;;;4.95;2.80;;;;;;;15.64;61.57;100450.37;4484203;32;33661;-77
2022/09/21 09:19:49;;;;;;;4.72;2.47;;;;;;;15.43;61.19;100454.03;4475457;32;34487;-78
2022/09/21 09:22:24;;;;;;;5.20;3.25;;;;;;;15.02;61.71;100456.00;4474726;32;34530;-78
2022/09/21 09:24:54;;;;;;;5.82;3.15;;;;;;;15.08;62.43;100450.13;4469955;32;33980;-79
2022/09/21 09:27:34;;;;;;;5.30;2.95;;;;;;;14.66;63.59;100450.28;4480210;31;32994;-78
2022/09/21 09:30:22;;;;;;;5.68;2.85;;;;;;;14.60;64.20;100453.53;4470896;32;33764;-78
2022/09/21 09:32:58;;;;;;;5.00;3.25;;;;;;;14.94;64.74;100447.91;4490423;31;34433;-78
2022/09/21 09:35:29;;;;;;;5.22;2.95;;;;;;;15.08;63.28;100453.63;4474796;32;33286;-78
2022/09/21 09:38:04;;;;;;;5.25;2.72;;;;;;;14.56;64.99;100449.00;4482749;31;33014;-77
2022/09/21 09:40:59;;;;;;;5.40;2.92;;;;;;;15.28;60.34;100443.06;4463383;32;32401;-78
2022/09/21 09:44:00;;;;;;;5.10;2.72;;;;;;;15.52;61.69;100441.28;4484161;31;33832;-78
2022/09/21 09:47:02;;;;;;;7.37;2.90;;;;;;;15.20;62.65;100441.84;4483416;32;33922;-77
2022/09/21 09:49:39;;;;;;;4.87;2.90;;;;;;;15.49;61.84;100454.25;4486006;32;33896;-78
2022/09/21 09:52:10;;;;;;;4.82;3.10;;;;;;;15.44;61.82;100453.19;4494039;31;34083;-78
2022/09/21 09:54:40;;;;;;;5.30;2.95;;;;;;;15.21;62.13;100444.53;4482429;32;33790;-78
2022/09/21 09:57:08;;;;;;;5.90;2.60;;;;;;;15.94;60.93;100441.88;4495060;31;33179;-78
2022/09/21 09:59:45;;;;;;;6.28;2.78;;;;;;;16.12;59.40;100437.22;4489618;31;34019;-78
2022/09/21 10:02:22;;;;;;;5.37;2.97;;;;;;;15.38;60.99;100450.37;4485300;31;34574;-78
2022/09/21 10:05:05;;;;;;;5.22;2.30;;;;;;;16.20;58.74;100434.88;4492430;31;33851;-78
2022/09/21 10:07:41;;;;;;;6.03;2.47;;;;;;;16.01;59.17;100430.75;4490053;31;32852;-78
2022/09/21 10:10:35;;;;;;;6.20;2.70;;;;;;;15.01;61.51;100438.59;4484847;31;34543;-77
2022/09/21 10:13:13;;;;;;;3.78;2.30;;;;;;;14.41;62.99;100432.75;4471008;32;33287;-78
2022/09/21 10:15:50;;;;;;;3.87;1.92;;;;;;;15.53;58.70;100431.75;4471199;31;34482;-77
2022/09/21 10:18:21;;;;;;;3.42;1.87;;;;;;;15.83;58.48;100428.44;4484516;31;33387;-78
2022/09/21 10:21:35;;;;;;;4.35;2.08;;;;;;;16.25;59.46;100423.72;4481484;31;34525;-78
2022/09/21 10:24:03;;;;;;;5.53;1.92;;;;;;;17.02;55.51;100422.56;4483868;32;33658;-78
2022/09/21 10:26:40;;;;;;;4.57;2.22;;;;;;;17.23;55.32;100422.25;4475778;31;33056;-80
2022/09/21 10:29:22;;;;;;;5.05;2.58;;;;;;;17.10;55.46;100419.31;4491246;31;33911;-80
2022/09/21 10:32:05;;;;;;;4.35;2.67;;;;;;;16.81;58.27;100417.56;4478693;31;32226;-78
2022/09/21 10:34:37;;;;;;;4.50;2.10;;;;;;;17.16;57.02;100412.50;4482452;32;34398;-78
2022/09/21 10:37:45;;;;;;;4.07;1.87;;;;;;;17.94;53.50;100400.56;4471431;32;33808;-78
2022/09/21 10:40:18;;;;;;;3.22;1.80;;;;;;;17.63;54.16;100408.50;4393983;32;34028;-78
2022/09/21 10:42:50;;;;;;;6.32;1.73;;;;;;;17.20;52.47;100415.22;4485077;31;32721;-78
2022/09/21 10:45:20;;;;;;;3.85;1.77;;;;;;;17.23;53.21;100402.22;4485610;32;34689;-78
2022/09/21 10:48:12;;;;;;;7.18;1.92;;;;;;;17.87;53.03;100400.44;4485551;31;34492;-77
2022/09/21 10:50:42;;;;;;;3.25;1.77;;;;;;;17.21;53.82;100406.53;4475953;31;33163;-78
2022/09/21 10:53:09;;;;;;;3.12;2.15;;;;;;;17.74;52.87;100398.31;4482430;31;33733;-78
2022/09/21 10:55:49;;;;;;;5.78;2.08;;;;;;;16.92;57.49;100407.44;4489359;31;34491;-78
2022/09/21 10:58:38;;;;;;;3.85;1.65;;;;;;;16.58;56.34;100404.69;4479218;31;33433;-78
2022/09/21 11:01:20;;;;;;;2.30;1.20;;;;;;;17.49;53.43;100397.66;4496672;31;32817;-79
2022/09/21 11:04:00;;;;;;;2.67;1.35;;;;;;;17.83;52.53;100387.19;4488034;31;33787;-78
2022/09/21 11:06:36;;;;;;;3.45;1.40;;;;;;;17.42;53.03;100395.75;4489463;31;33689;-79
2022/09/21 11:09:07;;;;;;;2.95;1.65;;;;;;;17.66;53.28;100394.62;4478820;32;34498;-79
2022/09/21 11:11:59;;;;;;;3.78;1.50;;;;;;;17.56;53.42;100390.88;4482394;31;33182;-80
2022/09/21 11:14:51;;;;;;;3.85;1.70;;;;;;;17.26;53.54;100398.78;4485377;32;33920;-78
2022/09/21 11:17:34;;;;;;;1.87;1.00;;;;;;;16.88;55.23;100395.97;4485251;31;33989;-78
2022/09/21 11:20:29;;;;;;;2.45;1.08;;;;;;;17.52;52.09;100390.72;4484430;31;33572;-78
2022/09/21 11:23:02;;;;;;;2.12;1.05;;;;;;;17.62;49.73;100380.53;4485616;32;33347;-77
2022/09/21 11:25:36;;;;;;;1.80;0.95;;;;;;;17.06;50.10;100386.03;4482494;31;34012;-78
2022/09/21 11:28:16;;;;;;;2.10;1.08;;;;;;;17.23;51.37;100383.00;4487925;31;34198;-78
2022/09/21 11:31:15;;;;;;;4.32;1.20;;;;;;;16.75;52.45;100393.84;4481243;31;33723;-78
2022/09/21 11:33:53;;;;;;;1.58;0.90;;;;;;;17.56;50.16;100382.09;4488501;31;33882;-79
2022/09/21 11:36:28;;;;;;;1.55;0.80;;;;;;;17.56;46.59;100376.88;4485226;32;34739;-78
2022/09/21 11:39:39;;;;;;;2.37;0.80;;;;;;;17.42;47.23;100380.03;4485265;32;34336;-78
2022/09/21 11:42:28;;;;;;;2.10;0.98;;;;;;;17.53;48.22;100382.03;4445542;31;33716;-80
2022/09/21 11:45:06;;;;;;;3.45;0.82;;;;;;;17.18;48.58;100379.37;4489891;31;34514;-77
2022/09/21 11:47:56;;;;;;;1.80;0.75;;;;;;;17.27;48.05;100370.03;4470639;32;34504;-79
2022/09/21 11:50:33;;;;;;;1.85;0.90;;;;;;;17.28;48.44;100371.78;4475109;32;33945;-79
2022/09/21 11:53:13;;;;;;;2.05;1.00;;;;;;;18.31;47.49;100364.72;4493630;31;35192;-78
2022/09/21 11:55:52;;;;;;;2.90;1.02;;;;;;;18.46;48.43;100370.31;4492107;31;34156;-78
2022/09/21 11:58:26;;;;;;;2.72;0.90;;;;;;;18.17;47.94;100367.91;4474728;31;33824;-78